Aérodrome :
LOGIN :

S'inscrire | Disclaimer

   EN    FR    IT 

 










Légende :    VFR   VFR Marginal   IFR   IFR Intensif   IFR Très Intensif
Visi : 
Plafond : 
>= 8 km
>= 3000ft
5 à 8 km
1000 à 3000 ft
1500m à 5 km
500 à 1000 ft
800 à 1500m
200 à 500 ft
< 800m
< 200 ft
Symboles :   Orages  Brouillard  Fortes neiges  Fortes précipitations  Vent > 20 kt
SIGMETs :   Divers  Orages  Givrage  Turbulence  Onde Orograph.  Cendres Volcan.






- Altitude de l'aérodrome : 72 ft
- Code IATA : UDE


EHVK - Volkel Airbase

DERNIER METAR :
  • 070856Z AUTO 27007KT 240V330 9999 BKN014 BKN026 07/04 Q1014 GRN BECMG SCT020

METARs EXPIRÉS :
  • 070839Z AUTO 26007KT 240V330 9999 SCT011 BKN014 07/04 Q1013 GRN
  • 070838Z AUTO 27007KT 240V330 9999 FEW011 SCT013 07/05 Q1013 GRN
  • 070825Z AUTO 27007KT 240V340 9999 SCT009 06/04 Q1013 GRN
  • 070800Z AUTO 29006KT 250V330 9999 SCT009 06/03 Q1013 GRN
  • 070755Z AUTO 29006KT 250V330 9999 NCD 06/03 Q1013 BLU
  • 070735Z AUTO 29004KT 230V340 9999 FEW006 05/02 Q1012 BLU
  • 070731Z AUTO 29004KT 230V340 9999 FEW005 SCT006 05/03 Q1012 YLO
  • 070725Z AUTO 27004KT 230V330 9999 FEW005 04/02 Q1012 BLU
  • 070655Z AUTO VRB02KT 9999 FEW003 BKN042 BKN048 03/01 Q1012 BLU
  • 070636Z AUTO VRB01KT 9999 FEW024 BKN047 BKN059 02/02 Q1011 BLU
  • 070625Z AUTO VRB01KT 8000 BR FEW053 BKN110 01/00 Q1011 BLU
  • 070608Z AUTO 08002KT 5000 BR SCT038 BKN050 BKN096 01/00 Q1011 WHT

TAF TAF EHVK
Valide du 07 à 05h jusqu'au 07 à 17h UTC


070457Z 0705/0717 VRB03KT 9999 SCT020
TEMPO 0705/0708 4000 SHRA RA SCT012 SCT018CB
PROB40
TEMPO 0705/0708 VRB07G17KT 3000 TSRAGS SCT008 SCT016CB
PROB30
TEMPO 0706/0710 FEW004 SCT008 BKN010
BECMG 0709/0712 28011G21KT SCT020



MET'MAP, la Météo Aéronautique d'un coup d'oeil ! - Copyright ORBIFLY Décembre 2007 - Disclaimer

ORBIFLY MET'MAP TEAM :

Programmation & Développement : Alexandra Zaïnal
Sur une idée originale de : Baudouin d'Aumeries
Assistance à la programmation : Marc-Olivier Méhu
Soutien technique & logistique : Manuel Goepfert

Contact : metmap@orbifly.com




SOURCES & CREDITS :

   NOAA